Time;durP1;ratioP1;P1;durP2;ratioP2;P2;SDS_P1;SDS_P2;PMS_P1;PMS_P2;Temp;Humidity;BMP_temperature;BMP_pressure;BME280_temperature;BME280_humidity;BME280_pressure;Samples;Min_cycle;Max_cycle;Signal;HPM_P1;HPM_P2
2023/06/23 00:01:34;;;;;;;16.03;8.63;;;17.50;99.90;;;;;;5050617;28;20274;-77
2023/06/23 00:04:01;;;;;;;16.50;9.20;;;17.40;99.90;;;;;;5065264;28;20205;-77
2023/06/23 00:06:28;;;;;;;16.67;9.57;;;17.40;99.90;;;;;;5060847;28;20602;-75
2023/06/23 00:08:55;;;;;;;13.77;8.48;;;17.40;99.90;;;;;;5066723;28;20278;-77
2023/06/23 00:11:22;;;;;;;13.73;8.73;;;17.40;99.90;;;;;;5049391;28;20246;-76
2023/06/23 00:13:49;;;;;;;15.83;9.20;;;17.40;99.90;;;;;;5066870;28;20254;-76
2023/06/23 00:16:16;;;;;;;16.57;9.53;;;17.50;99.90;;;;;;5067849;28;20236;-76
2023/06/23 00:18:44;;;;;;;12.57;8.13;;;17.40;99.90;;;;;;5067275;28;20215;-76
2023/06/23 00:21:11;;;;;;;12.68;8.80;;;17.40;99.90;;;;;;5066331;28;20215;-76
2023/06/23 00:23:39;;;;;;;16.00;8.50;;;17.30;99.90;;;;;;5047717;28;20322;-75
2023/06/23 00:26:07;;;;;;;15.13;9.17;;;17.40;99.90;;;;;;5066050;28;20232;-76
2023/06/23 00:28:35;;;;;;;14.63;8.77;;;17.40;99.90;;;;;;5066234;28;20669;-76
2023/06/23 00:31:02;;;;;;;14.83;9.27;;;17.40;99.90;;;;;;5067154;28;20298;-76
2023/06/23 00:33:29;;;;;;;16.17;9.60;;;17.40;99.90;;;;;;5066830;28;20209;-76
2023/06/23 00:35:56;;;;;;;16.10;9.27;;;17.40;99.90;;;;;;5066453;28;20474;-75
2023/06/23 00:38:25;;;;;;;16.95;9.65;;;17.40;99.90;;;;;;5059751;28;20229;-77
2023/06/23 00:40:52;;;;;;;15.45;10.13;;;17.30;99.90;;;;;;5065395;28;20281;-77
2023/06/23 00:43:19;;;;;;;15.90;9.43;;;17.40;99.90;;;;;;5049301;28;20204;-76
2023/06/23 00:45:46;;;;;;;14.82;9.73;;;17.50;99.90;;;;;;5066908;28;20236;-76
2023/06/23 00:48:14;;;;;;;16.53;9.77;;;17.30;99.90;;;;;;5067436;28;20205;-76
2023/06/23 00:50:42;;;;;;;14.00;9.20;;;17.30;99.90;;;;;;5048727;28;20737;-76
2023/06/23 00:53:09;;;;;;;15.23;9.10;;;17.30;99.90;;;;;;5048992;28;20224;-76
2023/06/23 00:55:37;;;;;;;15.47;9.40;;;17.30;99.90;;;;;;5067109;28;20422;-76
2023/06/23 00:58:05;;;;;;;15.73;9.97;;;17.30;99.90;;;;;;5066351;28;20217;-76
2023/06/23 01:00:32;;;;;;;14.95;10.18;;;17.20;99.90;;;;;;5066255;28;20727;-77
2023/06/23 01:02:59;;;;;;;13.27;9.77;;;17.20;99.90;;;;;;5048458;28;20212;-76
2023/06/23 01:05:36;;;;;;;13.90;9.17;;;17.20;99.90;;;;;;5066289;28;20228;-78
2023/06/23 01:08:08;;;;;;;16.00;10.27;;;17.20;99.90;;;;;;5024284;28;1159205;-78
2023/06/23 01:10:56;;;;;;;16.30;9.43;;;17.10;99.90;;;;;;5067528;28;20215;-76
2023/06/23 01:13:33;;;;;;;14.43;9.43;;;17.10;99.90;;;;;;5067403;28;20212;-76
2023/06/23 01:16:15;;;;;;;15.20;9.70;;;17.10;99.90;;;;;;5051394;28;20208;-76
2023/06/23 01:19:15;;;;;;;15.00;9.83;;;17.00;99.90;;;;;;5067389;28;20259;-77
2023/06/23 01:21:59;;;;;;;14.87;9.83;;;17.00;99.90;;;;;;5066823;28;20270;-76
2023/06/23 01:25:14;;;;;;;15.80;9.97;;;16.90;99.90;;;;;;5066187;28;20699;-76
2023/06/23 01:27:52;;;;;;;19.27;10.47;;;16.90;99.90;;;;;;5061083;28;20649;-76
2023/06/23 01:30:26;;;;;;;16.63;10.87;;;16.90;99.90;;;;;;5070309;28;20253;-75
2023/06/23 01:33:02;;;;;;;17.23;11.23;;;16.80;99.90;;;;;;5052307;28;20257;-77
2023/06/23 01:35:36;;;;;;;20.07;11.87;;;16.80;99.90;;;;;;5070567;28;20207;-77
2023/06/23 01:38:10;;;;;;;20.20;12.07;;;16.80;99.90;;;;;;5064486;28;20270;-76
2023/06/23 01:40:41;;;;;;;21.03;12.00;;;16.80;99.90;;;;;;5067713;28;20208;-76
2023/06/23 01:43:10;;;;;;;18.73;12.13;;;16.70;99.90;;;;;;5071196;28;20219;-78
2023/06/23 01:45:39;;;;;;;18.97;11.37;;;16.70;99.90;;;;;;5070131;28;20239;-78
2023/06/23 01:48:10;;;;;;;23.13;13.50;;;16.70;99.90;;;;;;5070664;28;20201;-76
2023/06/23 01:50:40;;;;;;;21.10;12.87;;;16.70;99.90;;;;;;5070441;28;20224;-75
2023/06/23 01:53:08;;;;;;;20.73;13.63;;;16.60;99.90;;;;;;5070916;28;20345;-76
2023/06/23 01:55:38;;;;;;;25.30;14.40;;;16.60;99.90;;;;;;5053204;28;20553;-76
2023/06/23 01:58:06;;;;;;;22.37;13.77;;;16.60;99.90;;;;;;5070274;28;20212;-75
2023/06/23 02:00:34;;;;;;;21.43;14.63;;;16.50;99.90;;;;;;5070802;28;20208;-76
2023/06/23 02:03:04;;;;;;;25.33;15.60;;;16.50;99.90;;;;;;5062110;28;20219;-79
2023/06/23 02:05:33;;;;;;;23.93;15.37;;;16.50;99.90;;;;;;5052647;28;20307;-77
2023/06/23 02:08:01;;;;;;;27.20;15.03;;;16.50;99.90;;;;;;5068100;28;20692;-79
2023/06/23 02:10:28;;;;;;;26.67;15.87;;;16.50;99.90;;;;;;5052331;28;20292;-77
2023/06/23 02:12:57;;;;;;;27.13;16.17;;;16.50;99.90;;;;;;5069779;28;20205;-75
2023/06/23 02:15:26;;;;;;;26.10;15.87;;;16.50;99.90;;;;;;5070464;28;20219;-76
2023/06/23 02:17:54;;;;;;;30.93;17.10;;;16.60;99.90;;;;;;5070055;28;20315;-77
2023/06/23 02:20:23;;;;;;;30.27;16.67;;;16.50;99.90;;;;;;5052878;28;20204;-76
2023/06/23 02:22:52;;;;;;;27.17;15.93;;;16.40;99.90;;;;;;5070359;28;20509;-77
2023/06/23 02:25:20;;;;;;;27.63;16.27;;;16.40;99.90;;;;;;5070552;28;20243;-76
2023/06/23 02:27:48;;;;;;;30.07;17.17;;;16.40;99.90;;;;;;5069499;28;20585;-77
2023/06/23 02:30:19;;;;;;;30.87;18.63;;;16.30;99.90;;;;;;5069750;28;20382;-76
2023/06/23 02:32:47;;;;;;;27.13;15.87;;;16.30;99.90;;;;;;5068977;28;20274;-76
2023/06/23 02:35:15;;;;;;;30.07;17.40;;;16.30;99.90;;;;;;5069511;28;20278;-76
2023/06/23 02:37:48;;;;;;;29.93;16.97;;;16.30;99.90;;;;;;5068285;28;20216;-78
2023/06/23 02:40:18;;;;;;;31.33;19.10;;;16.30;99.90;;;;;;5045713;28;20273;-77
2023/06/23 02:42:57;;;;;;;29.80;16.43;;;16.30;99.90;;;;;;5069363;28;20232;-77
2023/06/23 02:45:30;;;;;;;32.87;18.70;;;16.30;99.90;;;;;;5069390;28;20247;-77
2023/06/23 02:47:59;;;;;;;29.97;17.90;;;16.30;99.90;;;;;;5069168;28;20212;-78
2023/06/23 02:50:33;;;;;;;29.43;17.90;;;16.20;99.90;;;;;;5070026;28;20200;-76
2023/06/23 02:53:06;;;;;;;32.10;19.23;;;16.20;99.90;;;;;;5068643;28;20211;-77
2023/06/23 02:55:39;;;;;;;30.80;17.33;;;16.20;99.90;;;;;;5051228;28;20200;-77
2023/06/23 02:58:09;;;;;;;26.57;17.13;;;16.30;99.90;;;;;;5043348;28;20193;-78
2023/06/23 03:00:37;;;;;;;29.90;18.50;;;16.10;99.90;;;;;;5069355;28;20670;-75
2023/06/23 03:03:09;;;;;;;36.87;19.13;;;16.20;99.90;;;;;;5051009;28;20203;-76
2023/06/23 03:05:36;;;;;;;35.33;18.87;;;16.10;99.90;;;;;;5068893;28;20311;-76
2023/06/23 03:08:05;;;;;;;31.17;16.97;;;16.10;99.90;;;;;;5061220;28;20662;-76
2023/06/23 03:10:33;;;;;;;32.87;19.10;;;16.10;99.90;;;;;;5050711;28;20562;-77
2023/06/23 03:13:00;;;;;;;33.17;19.53;;;16.10;99.90;;;;;;5068974;28;20204;-76
2023/06/23 03:15:28;;;;;;;33.37;18.63;;;16.10;99.90;;;;;;5069590;28;20259;-76
2023/06/23 03:18:00;;;;;;;34.60;19.53;;;16.10;99.90;;;;;;5069524;28;20238;-77
2023/06/23 03:20:38;;;;;;;32.40;18.87;;;16.20;99.90;;;;;;5050696;28;20200;-77
2023/06/23 03:23:11;;;;;;;35.60;19.07;;;16.10;99.90;;;;;;5061852;28;20251;-78
2023/06/23 03:25:41;;;;;;;35.03;18.73;;;16.10;99.90;;;;;;5068505;28;20236;-76
2023/06/23 03:28:11;;;;;;;35.03;19.10;;;16.00;99.90;;;;;;5069428;28;20556;-78
2023/06/23 03:30:50;;;;;;;34.63;19.90;;;16.00;99.90;;;;;;5068444;28;20212;-76
2023/06/23 03:33:22;;;;;;;34.63;18.87;;;16.00;99.90;;;;;;5068032;28;20216;-77
2023/06/23 03:35:50;;;;;;;41.27;20.83;;;16.00;99.90;;;;;;5068165;28;20223;-78
2023/06/23 03:38:19;;;;;;;38.57;20.13;;;16.00;99.90;;;;;;5050902;28;20998;-77
2023/06/23 03:40:56;;;;;;;37.27;21.30;;;16.00;99.90;;;;;;5068316;28;20224;-77
2023/06/23 03:43:36;;;;;;;35.13;19.97;;;16.00;99.90;;;;;;5069123;28;20264;-77
2023/06/23 03:46:13;;;;;;;38.73;20.10;;;16.00;99.90;;;;;;5060371;28;20335;-77
2023/06/23 03:48:42;;;;;;;39.10;20.03;;;16.00;99.90;;;;;;5067998;28;20208;-77
2023/06/23 03:51:12;;;;;;;37.10;20.57;;;16.00;99.90;;;;;;5068374;28;20625;-77
2023/06/23 03:53:40;;;;;;;36.13;19.17;;;16.00;99.90;;;;;;5050430;28;20220;-76
2023/06/23 03:56:10;;;;;;;42.40;20.43;;;16.10;99.90;;;;;;5067808;28;20685;-76
2023/06/23 03:58:38;;;;;;;36.83;21.00;;;16.00;99.90;;;;;;5068437;28;20205;-77
2023/06/23 04:01:06;;;;;;;39.50;19.77;;;16.10;99.90;;;;;;5069241;28;20304;-77
2023/06/23 04:03:34;;;;;;;38.83;21.40;;;16.10;99.90;;;;;;5068506;28;20264;-77
2023/06/23 04:06:05;;;;;;;40.30;21.67;;;16.10;99.90;;;;;;5059604;28;20252;-77
2023/06/23 04:08:34;;;;;;;40.57;21.00;;;16.10;99.90;;;;;;5060137;28;20216;-78
2023/06/23 04:11:03;;;;;;;41.60;21.70;;;16.20;99.90;;;;;;5054616;28;20205;-77
2023/06/23 04:13:32;;;;;;;39.47;21.73;;;16.20;99.90;;;;;;5070276;28;20571;-77
2023/06/23 04:16:02;;;;;;;39.33;20.13;;;16.10;99.90;;;;;;5069651;28;20220;-77
2023/06/23 04:18:31;;;;;;;37.30;20.73;;;16.10;99.90;;;;;;5051286;28;20208;-79
2023/06/23 04:21:00;;;;;;;37.33;20.57;;;16.20;99.90;;;;;;5068468;28;20216;-76
2023/06/23 04:23:28;;;;;;;38.57;20.73;;;16.20;99.90;;;;;;5068370;28;20270;-75
2023/06/23 04:25:56;;;;;;;37.20;18.77;;;16.20;99.90;;;;;;5067308;28;20756;-77
2023/06/23 04:28:25;;;;;;;35.93;19.73;;;16.20;99.90;;;;;;5068056;28;20203;-76
2023/06/23 04:30:53;;;;;;;35.50;19.63;;;16.20;99.90;;;;;;5050217;28;20682;-78
2023/06/23 04:33:20;;;;;;;32.30;18.87;;;16.20;99.90;;;;;;5066883;28;20192;-77
2023/06/23 04:35:49;;;;;;;36.10;20.50;;;16.20;99.90;;;;;;5049186;28;20562;-77
2023/06/23 04:38:23;;;;;;;37.73;19.90;;;16.30;99.90;;;;;;5048844;28;20688;-77
2023/06/23 04:40:57;;;;;;;36.27;18.47;;;16.30;99.90;;;;;;5066913;28;20218;-76
2023/06/23 04:43:40;;;;;;;34.50;19.20;;;16.30;99.90;;;;;;5049206;28;20230;-76
2023/06/23 04:46:21;;;;;;;29.67;17.63;;;16.40;99.90;;;;;;5059366;28;20768;-76
2023/06/23 04:48:55;;;;;;;36.03;19.33;;;16.40;99.90;;;;;;5048886;28;20315;-79
2023/06/23 04:51:28;;;;;;;32.70;17.93;;;16.40;99.90;;;;;;5066898;28;20580;-76
2023/06/23 04:54:00;;;;;;;32.40;18.83;;;16.60;99.90;;;;;;5049338;28;20725;-76
2023/06/23 04:56:32;;;;;;;31.40;17.10;;;16.50;99.90;;;;;;5049426;28;20231;-77
2023/06/23 04:59:03;;;;;;;30.37;17.50;;;16.50;99.90;;;;;;5067067;28;20224;-76
2023/06/23 05:01:32;;;;;;;31.07;18.07;;;16.60;99.90;;;;;;5049940;28;20208;-78
2023/06/23 05:04:00;;;;;;;23.90;14.80;;;16.60;99.90;;;;;;5049628;28;20205;-78
2023/06/23 05:06:30;;;;;;;32.13;18.37;;;16.60;99.90;;;;;;5060092;28;20716;-77
2023/06/23 05:08:59;;;;;;;27.50;16.33;;;16.70;99.90;;;;;;5065243;28;20680;-77
2023/06/23 05:11:26;;;;;;;28.00;16.17;;;16.80;99.90;;;;;;5066678;28;20205;-76
2023/06/23 05:13:55;;;;;;;28.42;16.20;;;16.80;99.90;;;;;;5067478;28;20247;-77
2023/06/23 05:16:22;;;;;;;25.77;15.07;;;16.90;99.90;;;;;;5067881;28;20201;-77
2023/06/23 05:18:51;;;;;;;24.42;15.02;;;16.90;99.90;;;;;;5067427;28;20668;-76
2023/06/23 05:21:21;;;;;;;25.55;14.77;;;17.00;99.90;;;;;;5068343;28;20215;-76
2023/06/23 05:23:51;;;;;;;27.00;16.15;;;17.10;99.90;;;;;;5049032;28;20606;-78
2023/06/23 05:26:24;;;;;;;24.58;14.27;;;17.30;99.90;;;;;;5049696;28;20668;-78
2023/06/23 05:28:54;;;;;;;19.98;11.98;;;17.80;99.90;;;;;;5049441;28;20263;-77
2023/06/23 05:31:23;;;;;;;20.27;10.85;;;18.70;99.90;;;;;;5067226;28;20219;-78
2023/06/23 05:33:52;;;;;;;16.00;10.00;;;19.70;99.90;;;;;;5066868;28;20212;-76
2023/06/23 05:36:21;;;;;;;12.50;8.82;;;20.60;99.90;;;;;;5066305;28;20731;-76
2023/06/23 05:38:50;;;;;;;13.10;8.82;;;21.40;99.90;;;;;;5057606;28;20665;-76
2023/06/23 05:41:17;;;;;;;11.27;8.27;;;22.20;99.90;;;;;;5066566;28;20213;-78
2023/06/23 05:43:44;;;;;;;12.18;7.95;;;22.80;99.90;;;;;;5066363;28;20213;-78
2023/06/23 05:46:14;;;;;;;10.73;7.90;;;23.30;99.90;;;;;;5066608;28;20315;-77
2023/06/23 05:49:09;;;;;;;11.00;7.85;;;23.80;99.90;;;;;;5066585;28;20292;-78
2023/06/23 05:51:39;;;;;;;11.32;6.78;;;24.20;99.90;;;;;;5065793;28;20209;-77
2023/06/23 05:54:10;;;;;;;10.70;7.28;;;24.60;99.90;;;;;;5066765;28;20289;-76
2023/06/23 05:56:49;;;;;;;9.40;7.63;;;24.90;99.90;;;;;;5066294;28;20211;-77
2023/06/23 05:59:23;;;;;;;10.52;7.30;;;25.40;99.90;;;;;;5049210;28;20220;-77
2023/06/23 06:01:55;;;;;;;9.60;6.78;;;25.90;99.90;;;;;;5066871;28;20669;-78
2023/06/23 06:04:27;;;;;;;9.38;7.00;;;26.20;99.90;;;;;;5067078;28;20211;-77
2023/06/23 06:06:57;;;;;;;9.57;7.22;;;26.50;99.90;;;;;;5057963;28;20255;-77
2023/06/23 06:09:27;;;;;;;9.80;6.85;;;26.80;99.90;;;;;;5066622;28;20216;-79
2023/06/23 06:11:57;;;;;;;7.20;6.28;;;27.20;99.90;;;;;;5067147;28;20574;-78
2023/06/23 06:14:26;;;;;;;10.15;5.75;;;27.50;99.90;;;;;;5071089;28;20200;-77
2023/06/23 06:16:55;;;;;;;9.13;6.22;;;27.80;99.90;;;;;;5070251;28;20576;-78
2023/06/23 06:19:24;;;;;;;7.78;6.00;;;27.90;99.90;;;;;;5052286;28;20319;-77
2023/06/23 06:21:52;;;;;;;5.97;5.22;;;27.90;99.90;;;;;;5070189;28;20224;-78
2023/06/23 06:24:20;;;;;;;8.10;5.95;;;28.10;99.90;;;;;;5069857;28;20220;-77
2023/06/23 06:26:49;;;;;;;10.77;6.18;;;28.30;99.90;;;;;;5069390;28;20311;-77
2023/06/23 06:29:18;;;;;;;6.65;5.55;;;28.60;99.90;;;;;;5052433;28;20621;-77
2023/06/23 06:31:47;;;;;;;6.50;5.38;;;28.70;99.90;;;;;;5069215;28;20215;-78
2023/06/23 06:34:17;;;;;;;6.95;4.68;;;28.90;99.90;;;;;;5051122;28;20196;-77
2023/06/23 06:36:45;;;;;;;7.22;4.43;;;29.20;99.90;;;;;;5069820;28;20538;-79
2023/06/23 06:39:14;;;;;;;4.90;3.60;;;29.30;99.90;;;;;;5061201;28;20216;-79
2023/06/23 06:41:42;;;;;;;5.40;3.75;;;29.10;99.90;;;;;;5069584;28;20630;-79
2023/06/23 06:44:08;;;;;;;5.20;3.70;;;29.00;99.90;;;;;;5052237;28;20216;-77
2023/06/23 06:46:39;;;;;;;4.95;4.38;;;29.10;99.90;;;;;;5069035;28;20890;-79
2023/06/23 06:49:09;;;;;;;4.38;3.78;;;29.10;99.90;;;;;;5069592;28;20665;-79
2023/06/23 06:51:37;;;;;;;5.10;3.97;;;29.20;99.90;;;;;;5069579;28;20208;-79
2023/06/23 06:54:04;;;;;;;5.47;3.90;;;29.40;99.90;;;;;;5051543;28;20256;-78
2023/06/23 06:56:31;;;;;;;5.93;3.97;;;29.60;99.90;;;;;;5069887;28;20204;-77
2023/06/23 06:58:58;;;;;;;4.90;3.70;;;29.80;99.90;;;;;;5069917;28;20798;-78
2023/06/23 07:01:26;;;;;;;4.93;3.70;;;30.10;99.90;;;;;;5069588;28;20323;-79
2023/06/23 07:03:55;;;;;;;3.85;3.30;;;30.30;99.90;;;;;;5051927;28;20248;-78
2023/06/23 07:06:22;;;;;;;5.75;4.07;;;30.30;99.90;;;;;;5051007;28;20228;-78
2023/06/23 07:08:49;;;;;;;4.07;3.67;;;30.50;99.90;;;;;;5068931;28;20221;-80
2023/06/23 07:11:16;;;;;;;4.15;3.40;;;30.60;99.90;;;;;;5069532;28;20214;-79
2023/06/23 07:13:43;;;;;;;5.07;3.60;;;30.60;99.90;;;;;;5069187;28;20207;-78
2023/06/23 07:16:10;;;;;;;4.90;3.75;;;30.60;99.90;;;;;;5051604;28;20204;-78
2023/06/23 07:18:37;;;;;;;5.53;3.75;;;30.60;99.90;;;;;;5051624;28;20208;-78
2023/06/23 07:21:04;;;;;;;4.10;3.70;;;30.50;99.90;;;;;;5068409;28;20266;-80
2023/06/23 07:23:31;;;;;;;4.53;3.75;;;30.50;99.90;;;;;;5049745;28;20227;-79
2023/06/23 07:25:58;;;;;;;4.97;3.53;;;30.70;99.90;;;;;;5050745;28;20215;-77
2023/06/23 07:28:25;;;;;;;4.28;3.17;;;30.50;99.90;;;;;;5069134;28;20587;-78
2023/06/23 07:30:52;;;;;;;4.25;3.35;;;30.50;99.90;;;;;;5068948;28;20306;-78
2023/06/23 07:33:19;;;;;;;5.18;3.42;;;30.60;99.90;;;;;;5069317;28;20230;-77
2023/06/23 07:35:46;;;;;;;4.20;3.30;;;30.70;99.90;;;;;;5069079;28;20189;-78
2023/06/23 07:38:13;;;;;;;3.97;3.40;;;31.00;99.90;;;;;;5063903;28;20217;-77
2023/06/23 07:40:40;;;;;;;4.60;3.25;;;31.40;99.90;;;;;;5064324;28;20210;-77
2023/06/23 07:43:08;;;;;;;5.82;3.67;;;31.60;99.90;;;;;;5069082;28;20781;-77
2023/06/23 07:45:35;;;;;;;4.15;3.53;;;31.60;99.90;;;;;;5050733;28;20215;-78
2023/06/23 07:48:02;;;;;;;4.60;3.33;;;31.60;99.90;;;;;;5038750;28;20308;-78
2023/06/23 07:50:29;;;;;;;4.25;3.38;;;31.70;99.90;;;;;;5045791;28;20204;-78
2023/06/23 07:52:57;;;;;;;4.65;3.60;;;31.80;99.90;;;;;;5050714;28;20631;-79
2023/06/23 07:55:24;;;;;;;7.65;3.65;;;31.80;99.90;;;;;;5068459;28;20710;-78
2023/06/23 07:57:51;;;;;;;5.65;3.85;;;31.70;99.90;;;;;;5051436;28;20224;-78
2023/06/23 08:00:18;;;;;;;5.53;3.72;;;31.60;99.90;;;;;;5046988;28;20212;-78
2023/06/23 08:02:45;;;;;;;5.95;4.18;;;31.50;99.90;;;;;;5068606;28;20287;-77
2023/06/23 08:05:12;;;;;;;6.70;3.63;;;31.50;99.90;;;;;;5074848;28;20192;-78
2023/06/23 08:07:40;;;;;;;5.35;4.05;;;31.50;99.90;;;;;;5065365;28;20358;-79
2023/06/23 08:10:07;;;;;;;4.70;3.65;;;31.30;99.90;;;;;;5073047;28;20234;-77
2023/06/23 08:12:35;;;;;;;6.70;4.40;;;31.20;99.90;;;;;;5072339;28;20263;-77
2023/06/23 08:15:03;;;;;;;5.70;3.65;;;31.00;99.90;;;;;;5061539;28;20715;-78
2023/06/23 08:17:30;;;;;;;6.20;4.10;;;30.70;99.90;;;;;;5067784;28;20208;-77
2023/06/23 08:19:57;;;;;;;5.90;3.90;;;30.60;99.90;;;;;;5050014;28;20219;-78
2023/06/23 08:22:24;;;;;;;4.47;3.22;;;30.40;99.90;;;;;;5047431;28;20580;-78
2023/06/23 08:24:51;;;;;;;4.75;3.50;;;30.50;99.90;;;;;;5066751;28;20224;-77
2023/06/23 08:27:18;;;;;;;4.13;3.25;;;30.40;99.90;;;;;;5068172;28;20232;-77
2023/06/23 08:29:45;;;;;;;3.47;2.80;;;30.40;99.90;;;;;;5050090;28;20295;-77
2023/06/23 08:32:13;;;;;;;2.75;2.10;;;30.40;99.90;;;;;;5050074;28;20299;-78
2023/06/23 08:34:40;;;;;;;4.45;2.67;;;;;;;;;;5067607;28;20209;-78
2023/06/23 08:37:07;;;;;;;4.40;2.92;;;30.10;99.90;;;;;;5049914;28;20216;-77
2023/06/23 08:39:34;;;;;;;3.35;2.58;;;30.00;99.90;;;;;;5041627;28;20221;-77
2023/06/23 08:42:02;;;;;;;3.13;2.40;;;30.00;99.90;;;;;;5067641;28;20212;-79
2023/06/23 08:44:31;;;;;;;4.25;3.10;;;30.10;99.90;;;;;;5049958;28;20647;-78
2023/06/23 08:47:04;;;;;;;4.30;3.17;;;30.30;99.90;;;;;;5049490;28;20231;-79
2023/06/23 08:49:37;;;;;;;5.03;3.30;;;30.40;99.90;;;;;;5050302;28;20236;-78
2023/06/23 08:52:04;;;;;;;5.35;2.80;;;30.50;99.90;;;;;;5059451;28;20681;-77
2023/06/23 08:54:31;;;;;;;4.38;3.40;;;30.60;99.90;;;;;;5049742;28;20534;-77
2023/06/23 08:56:59;;;;;;;4.82;2.80;;;30.60;99.90;;;;;;5049777;28;20816;-77
2023/06/23 08:59:26;;;;;;;4.07;3.38;;;30.50;99.90;;;;;;5067449;28;21005;-78
2023/06/23 09:01:52;;;;;;;5.05;3.20;;;30.30;99.90;;;;;;5050780;28;20242;-77
2023/06/23 09:04:20;;;;;;;4.53;3.20;;;30.40;99.90;;;;;;5049802;28;20219;-79
2023/06/23 09:06:47;;;;;;;4.40;3.42;;;30.20;99.90;;;;;;5051303;28;20247;-78
2023/06/23 09:09:14;;;;;;;3.95;2.55;;;30.20;99.90;;;;;;5049582;28;20231;-79
2023/06/23 09:11:42;;;;;;;3.05;2.47;;;30.30;99.90;;;;;;5049684;28;20235;-77
2023/06/23 09:14:10;;;;;;;4.53;2.80;;;30.30;98.10;;;;;;5067798;28;20212;-79
2023/06/23 09:16:42;;;;;;;4.05;2.90;;;30.20;97.90;;;;;;5049826;28;20220;-78
2023/06/23 09:19:09;;;;;;;3.42;2.70;;;30.20;98.20;;;;;;5049607;28;20215;-78
2023/06/23 09:21:37;;;;;;;3.67;2.72;;;30.10;98.60;;;;;;5067215;28;20208;-77
2023/06/23 09:24:06;;;;;;;3.05;2.67;;;30.00;98.70;;;;;;5067318;28;20220;-79
2023/06/23 09:26:49;;;;;;;3.10;2.80;;;30.00;99.30;;;;;;5067744;28;20208;-78
2023/06/23 09:29:21;;;;;;;3.53;2.65;;;30.10;99.90;;;;;;5060926;28;20223;-79
2023/06/23 09:31:52;;;;;;;3.40;2.58;;;30.10;99.90;;;;;;5058558;28;20263;-78
2023/06/23 09:34:38;;;;;;;3.92;2.80;;;29.90;99.50;;;;;;5068618;28;20240;-77
2023/06/23 09:37:11;;;;;;;3.83;2.75;;;29.60;99.00;;;;;;5037968;28;20209;-79
2023/06/23 09:39:43;;;;;;;3.80;2.80;;;29.20;99.80;;;;;;5052582;28;20240;-78
2023/06/23 09:42:14;;;;;;;4.50;3.03;;;28.90;99.90;;;;;;5049926;28;20220;-76
2023/06/23 09:44:45;;;;;;;3.15;2.67;;;29.40;99.90;;;;;;5049369;28;20212;-79
2023/06/23 09:47:17;;;;;;;3.20;2.80;;;29.00;99.90;;;;;;5050545;28;20335;-79
2023/06/23 09:49:47;;;;;;;5.40;2.97;;;29.30;99.90;;;;;;5053884;28;20200;-78
2023/06/23 09:52:22;;;;;;;3.13;2.65;;;29.10;99.90;;;;;;5071177;28;20236;-77
2023/06/23 09:54:49;;;;;;;4.22;3.13;;;29.30;99.90;;;;;;5053054;28;20223;-76
2023/06/23 09:57:17;;;;;;;3.72;3.30;;;29.20;99.90;;;;;;5053419;28;20223;-77
2023/06/23 09:59:46;;;;;;;3.85;2.90;;;29.10;99.90;;;;;;5053553;28;20212;-77
2023/06/23 10:02:26;;;;;;;4.35;3.08;;;29.10;99.90;;;;;;5070850;28;20610;-78
2023/06/23 10:05:04;;;;;;;4.57;2.97;;;29.20;99.90;;;;;;5069741;28;20218;-79
2023/06/23 10:07:32;;;;;;;4.57;3.28;;;29.10;99.90;;;;;;5062280;28;20295;-77
2023/06/23 10:10:07;;;;;;;3.30;3.00;;;28.90;99.90;;;;;;5052107;28;20224;-80
2023/06/23 10:12:39;;;;;;;4.55;3.03;;;28.90;99.90;;;;;;5053401;28;20553;-78
2023/06/23 10:15:07;;;;;;;4.95;3.25;;;28.70;99.90;;;;;;5053819;28;20256;-78
2023/06/23 10:17:35;;;;;;;4.93;3.22;;;28.60;99.90;;;;;;5052979;28;20219;-79
2023/06/23 10:20:04;;;;;;;4.35;2.92;;;28.70;99.90;;;;;;5052419;28;20657;-77
2023/06/23 10:22:32;;;;;;;3.00;2.70;;;28.60;99.90;;;;;;5070576;28;20672;-77
2023/06/23 10:25:00;;;;;;;4.80;2.80;;;28.70;99.90;;;;;;5052507;28;20233;-78
2023/06/23 10:27:29;;;;;;;3.75;2.70;;;28.60;99.90;;;;;;5052525;28;20224;-77
2023/06/23 10:30:00;;;;;;;3.47;2.70;;;28.60;99.90;;;;;;5052444;28;20256;-76
2023/06/23 10:32:33;;;;;;;4.28;2.80;;;28.60;99.90;;;;;;5070256;28;20211;-78
2023/06/23 10:35:07;;;;;;;3.45;2.58;;;28.70;99.90;;;;;;5052559;28;20519;-77
2023/06/23 10:37:35;;;;;;;3.47;2.30;;;28.60;99.80;;;;;;5052369;28;20206;-79
2023/06/23 10:40:15;;;;;;;2.90;2.47;;;28.60;98.60;;;;;;5039583;28;20541;-81
2023/06/23 10:42:47;;;;;;;3.10;2.13;;;28.50;98.40;;;;;;5052461;28;20252;-78
2023/06/23 10:45:14;;;;;;;2.83;2.30;;;28.40;98.40;;;;;;5051543;28;20204;-78
2023/06/23 10:47:52;;;;;;;3.55;2.65;;;28.40;97.70;;;;;;5052109;28;20235;-78
2023/06/23 10:50:20;;;;;;;2.67;2.33;;;28.40;97.50;;;;;;5069896;28;20272;-78
2023/06/23 10:52:47;;;;;;;3.63;2.35;;;28.40;97.60;;;;;;5051388;28;20213;-78
2023/06/23 10:55:34;;;;;;;4.30;2.15;;;28.40;97.10;;;;;;5052001;28;20213;-79
2023/06/23 10:58:17;;;;;;;2.60;2.30;;;28.50;96.90;;;;;;5044295;28;20204;-79
2023/06/23 11:00:52;;;;;;;2.88;1.95;;;28.50;96.30;;;;;;5052564;28;20215;-78
2023/06/23 11:03:33;;;;;;;2.85;1.98;;;28.40;95.30;;;;;;5051670;28;20273;-78
2023/06/23 11:06:05;;;;;;;4.22;2.50;;;28.30;95.60;;;;;;5041325;28;20196;-78
2023/06/23 11:08:40;;;;;;;4.63;2.35;;;28.20;96.20;;;;;;5051690;28;20243;-79
2023/06/23 11:11:11;;;;;;;3.33;2.70;;;28.20;96.90;;;;;;5044791;28;20208;-79
2023/06/23 11:13:49;;;;;;;2.65;2.40;;;28.80;99.90;;;;;;5052191;28;20222;-78
2023/06/23 11:16:26;;;;;;;6.18;2.90;;;28.20;96.80;;;;;;5051467;28;20631;-78
2023/06/23 11:19:08;;;;;;;3.75;2.28;;;28.30;96.90;;;;;;5052103;28;20262;-79
2023/06/23 11:21:39;;;;;;;3.92;2.47;;;28.20;97.00;;;;;;5052326;28;20282;-80
2023/06/23 11:24:20;;;;;;;4.40;2.60;;;28.20;97.10;;;;;;5044920;28;20661;-80
2023/06/23 11:27:01;;;;;;;4.05;2.47;;;28.20;97.40;;;;;;5052841;28;20222;-78
2023/06/23 11:29:30;;;;;;;2.85;2.35;;;28.10;97.60;;;;;;5051372;28;20220;-80
2023/06/23 11:32:14;;;;;;;4.80;2.40;;;28.20;97.40;;;;;;5051806;28;20545;-78
2023/06/23 11:34:54;;;;;;;5.90;2.75;;;28.40;97.00;;;;;;5051931;28;20215;-79
2023/06/23 11:37:27;;;;;;;6.10;2.67;;;28.40;97.50;;;;;;5052331;28;20246;-79
2023/06/23 11:42:49;;;;;;;5.13;2.90;;;28.50;97.00;;;;;;5062477;28;20203;-78
2023/06/23 11:45:22;;;;;;;3.28;2.90;;;28.40;97.20;;;;;;5053642;28;20204;-80
2023/06/23 11:47:51;;;;;;;3.95;2.55;;;28.40;97.00;;;;;;5069349;28;20243;-80
2023/06/23 11:50:18;;;;;;;7.20;2.70;;;28.40;97.30;;;;;;5051306;28;20205;-79
2023/06/23 11:52:47;;;;;;;4.30;2.67;;;28.50;97.10;;;;;;5051422;28;20212;-77
2023/06/23 11:55:23;;;;;;;4.60;2.70;;;28.60;97.30;;;;;;5051762;28;20296;-79
2023/06/23 11:58:08;;;;;;;3.95;3.05;;;28.60;97.20;;;;;;5044088;28;20627;-79
2023/06/23 12:00:48;;;;;;;5.10;3.05;;;28.70;97.30;;;;;;5051851;28;20725;-80
2023/06/23 12:03:16;;;;;;;3.65;2.80;;;28.70;97.50;;;;;;5050442;28;20208;-80
2023/06/23 12:06:12;;;;;;;3.10;2.22;;;28.70;97.30;;;;;;5065626;28;20196;-79
2023/06/23 12:08:41;;;;;;;3.85;2.75;;;28.80;97.20;;;;;;5047693;28;20752;-79
2023/06/23 12:11:18;;;;;;;4.07;3.08;;;28.70;97.30;;;;;;5049780;28;20216;-78
2023/06/23 12:13:50;;;;;;;3.90;2.90;;;28.70;97.80;;;;;;5050552;28;20253;-80
2023/06/23 12:16:25;;;;;;;3.30;3.00;;;28.70;97.90;;;;;;5050577;28;20200;-80
2023/06/23 12:18:52;;;;;;;3.85;2.70;;;28.80;97.70;;;;;;5050877;28;20211;-79
2023/06/23 12:21:46;;;;;;;4.75;3.00;;;28.70;97.20;;;;;;5050691;28;20704;-80
2023/06/23 12:24:11;;;;;;;4.80;2.92;;;28.80;97.00;;;;;;5061138;28;20224;-80
2023/06/23 12:26:46;;;;;;;3.45;2.85;;;28.80;97.80;;;;;;5050501;28;20201;-78
2023/06/23 12:29:17;;;;;;;4.38;2.75;;;29.00;98.20;;;;;;5050734;28;20661;-79
2023/06/23 12:31:53;;;;;;;3.40;2.92;;;29.10;97.90;;;;;;5050145;28;20201;-78
2023/06/23 12:34:28;;;;;;;4.00;3.10;;;29.10;97.20;;;;;;5050026;28;20659;-79
2023/06/23 12:37:10;;;;;;;4.47;3.20;;;29.20;97.00;;;;;;5050948;28;20200;-78
2023/06/23 12:39:53;;;;;;;5.50;3.67;;;29.30;96.40;;;;;;5050751;28;20299;-79
2023/06/23 12:42:28;;;;;;;3.88;3.03;;;29.20;96.50;;;;;;5050547;28;20213;-80
2023/06/23 12:44:55;;;;;;;4.78;3.22;;;29.30;96.10;;;;;;5049864;28;20216;-79
2023/06/23 12:47:25;;;;;;;5.85;3.03;;;29.40;96.40;;;;;;5050590;28;20224;-80
2023/06/23 12:50:07;;;;;;;4.90;2.85;;;29.40;96.30;;;;;;5051032;28;20211;-77
2023/06/23 12:52:58;;;;;;;3.55;3.20;;;29.50;96.60;;;;;;5050648;28;20245;-80
2023/06/23 12:55:44;;;;;;;4.85;2.63;;;29.60;96.00;;;;;;5061568;28;20732;-82
2023/06/23 12:58:14;;;;;;;4.05;3.13;;;29.70;95.80;;;;;;5050403;28;20274;-78
2023/06/23 13:00:42;;;;;;;3.60;3.03;;;29.50;95.30;;;;;;5050288;28;20302;-80